Time;durP1;ratioP1;P1;durP2;ratioP2;P2;SDS_P1;SDS_P2;PMS_P1;PMS_P2;Temp;Humidity;BMP_temperature;BMP_pressure;BME280_temperature;BME280_humidity;BME280_pressure;Samples;Min_cycle;Max_cycle;Signal;HPM_P1;HPM_P2
2021/08/31 00:01:40;;;;;;;11.37;10.23;;;16.70;99.90;;;;;;5014487;28;20196;-82
2021/08/31 00:04:05;;;;;;;12.23;10.03;;;16.70;99.90;;;;;;5014728;28;20645;-82
2021/08/31 00:06:31;;;;;;;10.70;9.70;;;16.70;99.90;;;;;;5014069;28;20193;-82
2021/08/31 00:08:57;;;;;;;11.03;10.03;;;16.60;99.90;;;;;;5014631;28;20505;-82
2021/08/31 00:11:22;;;;;;;11.10;9.93;;;16.70;99.90;;;;;;5014093;28;20639;-82
2021/08/31 00:13:48;;;;;;;11.03;9.37;;;16.60;99.90;;;;;;4997178;28;20580;-82
2021/08/31 00:16:14;;;;;;;10.20;9.30;;;16.60;99.90;;;;;;5014022;28;20576;-81
2021/08/31 00:18:40;;;;;;;12.67;11.20;;;16.60;99.90;;;;;;5019653;28;20170;-82
2021/08/31 00:21:05;;;;;;;9.93;8.93;;;16.60;99.90;;;;;;4996742;28;20240;-81
2021/08/31 00:23:31;;;;;;;10.90;9.10;;;16.60;99.90;;;;;;5014404;28;20191;-82
2021/08/31 00:25:56;;;;;;;11.73;10.27;;;16.60;99.90;;;;;;5013680;28;20171;-82
2021/08/31 00:28:22;;;;;;;10.90;9.73;;;16.50;99.90;;;;;;5014216;28;20185;-81
2021/08/31 00:30:48;;;;;;;10.90;9.80;;;16.50;99.90;;;;;;5013932;28;20194;-82
2021/08/31 00:33:14;;;;;;;10.70;9.43;;;16.50;99.90;;;;;;4996564;28;20170;-82
2021/08/31 00:35:40;;;;;;;11.53;10.43;;;16.50;99.90;;;;;;5013935;28;20577;-82
2021/08/31 00:38:05;;;;;;;10.70;9.60;;;16.40;99.90;;;;;;5014024;28;20919;-82
2021/08/31 00:40:31;;;;;;;11.67;10.57;;;16.40;99.90;;;;;;5014098;28;20530;-82
2021/08/31 00:42:57;;;;;;;10.20;9.30;;;16.40;99.90;;;;;;5014203;28;20166;-82
2021/08/31 00:45:24;;;;;;;11.10;9.90;;;16.30;99.90;;;;;;5014104;28;20608;-82
2021/08/31 00:47:50;;;;;;;10.57;9.57;;;16.30;99.90;;;;;;4996733;28;20170;-81
2021/08/31 00:50:17;;;;;;;11.23;10.23;;;16.30;99.90;;;;;;5013929;28;20569;-82
2021/08/31 00:52:43;;;;;;;10.97;9.93;;;16.30;99.90;;;;;;4996212;28;21208;-82
2021/08/31 00:55:12;;;;;;;12.00;9.67;;;16.20;99.90;;;;;;5016736;28;20573;-82
2021/08/31 00:57:41;;;;;;;12.83;10.30;;;16.20;99.90;;;;;;5016578;28;20584;-81
2021/08/31 01:00:10;;;;;;;12.83;10.90;;;16.20;99.90;;;;;;5000141;28;20593;-82
2021/08/31 01:02:37;;;;;;;12.53;10.37;;;16.20;99.90;;;;;;5018333;28;20573;-82
2021/08/31 01:05:05;;;;;;;12.70;11.47;;;16.20;99.90;;;;;;5020166;28;20576;-82
2021/08/31 01:07:31;;;;;;;13.20;11.90;;;16.20;99.90;;;;;;5018473;28;20174;-82
2021/08/31 01:09:59;;;;;;;12.00;10.90;;;16.20;99.90;;;;;;5014120;28;20584;-82
2021/08/31 01:12:27;;;;;;;13.10;12.00;;;16.20;99.90;;;;;;5013523;28;21188;-81
2021/08/31 01:14:53;;;;;;;13.00;11.70;;;16.20;99.90;;;;;;5013665;28;20924;-82
2021/08/31 01:17:27;;;;;;;12.67;11.40;;;16.20;99.90;;;;;;4995340;28;20570;-82
2021/08/31 01:19:53;;;;;;;11.73;10.53;;;16.10;99.90;;;;;;5013352;28;20570;-82
2021/08/31 01:22:19;;;;;;;14.47;11.07;;;16.10;99.90;;;;;;5013148;28;20647;-82
2021/08/31 01:24:45;;;;;;;13.03;11.73;;;16.10;99.90;;;;;;4995541;28;20182;-82
2021/08/31 01:27:11;;;;;;;13.27;12.07;;;16.10;99.90;;;;;;5012807;28;20169;-82
2021/08/31 01:29:38;;;;;;;12.10;10.87;;;16.10;99.90;;;;;;5013184;28;20590;-82
2021/08/31 01:32:05;;;;;;;11.90;10.70;;;16.10;99.90;;;;;;5018515;28;20655;-81
2021/08/31 01:34:31;;;;;;;12.13;11.03;;;16.00;99.90;;;;;;5013130;28;20723;-82
2021/08/31 01:36:56;;;;;;;13.20;12.00;;;16.00;99.90;;;;;;5012574;28;20665;-82
2021/08/31 01:39:23;;;;;;;13.97;12.30;;;16.00;99.90;;;;;;5012676;28;20554;-81
2021/08/31 01:41:48;;;;;;;14.37;12.57;;;16.00;99.90;;;;;;5012693;28;20950;-81
2021/08/31 01:44:14;;;;;;;11.73;10.53;;;16.00;99.90;;;;;;5012704;28;20672;-82
2021/08/31 01:46:40;;;;;;;15.47;12.80;;;16.00;99.90;;;;;;5012499;28;20209;-82
2021/08/31 01:49:06;;;;;;;13.30;11.93;;;16.00;99.90;;;;;;4994908;28;20580;-82
2021/08/31 01:51:32;;;;;;;12.20;11.03;;;16.00;99.90;;;;;;5012702;28;20201;-82
2021/08/31 01:53:59;;;;;;;13.93;12.00;;;16.00;99.90;;;;;;5012425;28;20193;-82
2021/08/31 01:56:24;;;;;;;12.30;11.20;;;16.10;99.90;;;;;;5012444;28;20273;-81
2021/08/31 01:58:50;;;;;;;12.90;11.60;;;16.00;99.90;;;;;;4978529;28;21037;-81
2021/08/31 02:01:16;;;;;;;12.90;11.43;;;16.10;99.90;;;;;;5012446;28;20194;-81
2021/08/31 02:03:41;;;;;;;12.20;11.07;;;16.00;99.90;;;;;;5012702;28;20261;-81
2021/08/31 02:06:08;;;;;;;15.93;12.90;;;16.00;99.90;;;;;;5012319;28;20173;-82
2021/08/31 02:08:34;;;;;;;15.23;13.80;;;16.00;99.90;;;;;;5003872;28;20174;-82
2021/08/31 02:11:00;;;;;;;13.60;12.30;;;16.00;99.90;;;;;;5015690;28;20601;-82
2021/08/31 02:13:26;;;;;;;14.57;13.17;;;16.00;99.90;;;;;;5020481;28;20170;-82
2021/08/31 02:15:52;;;;;;;13.60;11.73;;;16.00;99.90;;;;;;5012954;28;20677;-82
2021/08/31 02:18:18;;;;;;;13.77;12.53;;;16.00;99.90;;;;;;5012914;28;20186;-81
2021/08/31 02:20:43;;;;;;;14.50;12.83;;;15.90;99.90;;;;;;5012306;28;20182;-82
2021/08/31 02:23:09;;;;;;;13.67;12.27;;;15.90;99.90;;;;;;4994236;28;20163;-81
2021/08/31 02:25:35;;;;;;;14.20;12.80;;;15.90;99.90;;;;;;5011739;28;20522;-82
2021/08/31 02:28:00;;;;;;;14.37;12.87;;;15.90;99.90;;;;;;4994630;28;20745;-81
2021/08/31 02:30:27;;;;;;;15.33;13.73;;;15.90;99.90;;;;;;5011903;28;20646;-81
2021/08/31 02:32:52;;;;;;;13.90;12.60;;;15.90;99.90;;;;;;5012091;28;20593;-81
2021/08/31 02:35:19;;;;;;;14.57;13.07;;;15.90;99.90;;;;;;4994512;28;20565;-81
2021/08/31 02:37:44;;;;;;;13.20;12.00;;;15.80;99.90;;;;;;5011977;28;20261;-83
2021/08/31 02:40:11;;;;;;;12.53;11.37;;;15.80;99.90;;;;;;5011897;28;20561;-82
2021/08/31 02:42:37;;;;;;;12.23;11.07;;;15.80;99.90;;;;;;5012077;28;20631;-82
2021/08/31 02:45:04;;;;;;;12.90;11.50;;;15.80;99.90;;;;;;5012275;28;20577;-82
2021/08/31 02:47:30;;;;;;;16.33;12.17;;;15.80;99.90;;;;;;4998431;28;20582;-82
2021/08/31 02:49:56;;;;;;;14.60;13.30;;;15.80;99.90;;;;;;5012091;28;20635;-82
2021/08/31 02:52:21;;;;;;;14.77;13.47;;;15.80;99.90;;;;;;5011811;28;20641;-82
2021/08/31 02:54:47;;;;;;;17.57;12.40;;;15.80;99.90;;;;;;4994212;28;20170;-82
2021/08/31 02:57:13;;;;;;;12.93;11.73;;;15.80;99.90;;;;;;5011776;28;20178;-82
2021/08/31 02:59:38;;;;;;;14.13;12.77;;;15.80;99.90;;;;;;4994150;28;20689;-82
2021/08/31 03:02:05;;;;;;;14.57;13.00;;;15.70;99.90;;;;;;5011940;28;20244;-82
2021/08/31 03:04:31;;;;;;;12.70;11.40;;;15.70;99.90;;;;;;5011693;28;20169;-82
2021/08/31 03:06:57;;;;;;;14.20;12.90;;;15.70;99.90;;;;;;5011537;28;20577;-82
2021/08/31 03:09:22;;;;;;;14.30;12.90;;;15.70;99.90;;;;;;5012004;28;20607;-82
2021/08/31 03:11:48;;;;;;;14.90;13.60;;;15.70;99.90;;;;;;5011524;28;20696;-82
2021/08/31 03:14:19;;;;;;;13.33;11.93;;;15.70;99.90;;;;;;5011859;28;20163;-82
2021/08/31 03:16:46;;;;;;;13.27;11.90;;;15.70;99.90;;;;;;5011371;28;20259;-82
2021/08/31 03:19:14;;;;;;;16.40;14.70;;;15.60;99.90;;;;;;4994319;28;20602;-82
2021/08/31 03:21:39;;;;;;;17.00;15.30;;;15.60;99.90;;;;;;5011547;28;20600;-80
2021/08/31 03:24:05;;;;;;;16.33;14.63;;;15.60;99.90;;;;;;5017321;28;20577;-81
2021/08/31 03:26:31;;;;;;;16.20;13.13;;;15.60;99.90;;;;;;5011355;28;20173;-82
2021/08/31 03:28:56;;;;;;;17.43;15.70;;;15.60;99.90;;;;;;5011920;28;20225;-81
2021/08/31 03:31:23;;;;;;;14.13;12.73;;;15.60;99.90;;;;;;5011346;28;21068;-82
2021/08/31 03:33:50;;;;;;;16.33;14.70;;;15.60;99.90;;;;;;5014048;28;20664;-80
2021/08/31 03:36:15;;;;;;;14.07;12.77;;;15.60;99.90;;;;;;5014412;28;20170;-79
2021/08/31 03:38:41;;;;;;;16.60;13.97;;;15.60;99.90;;;;;;5014977;28;20932;-79
2021/08/31 03:41:06;;;;;;;15.27;13.83;;;15.60;99.90;;;;;;5014781;28;20186;-79
2021/08/31 03:43:32;;;;;;;15.93;14.30;;;15.60;99.90;;;;;;5015001;28;20177;-79
2021/08/31 03:45:58;;;;;;;17.13;15.07;;;15.60;99.90;;;;;;5014390;28;20167;-79
2021/08/31 03:48:24;;;;;;;15.10;13.70;;;15.60;99.90;;;;;;5014690;28;20171;-80
2021/08/31 03:50:49;;;;;;;16.97;15.27;;;15.60;99.90;;;;;;4980916;28;20183;-80
2021/08/31 03:53:15;;;;;;;18.57;16.57;;;15.60;99.90;;;;;;5014935;28;20712;-78
2021/08/31 03:55:40;;;;;;;17.93;16.10;;;15.60;99.90;;;;;;5014275;28;20158;-79
2021/08/31 03:58:07;;;;;;;16.10;14.50;;;15.60;99.90;;;;;;5014749;28;20543;-79
2021/08/31 04:00:34;;;;;;;17.90;16.00;;;15.60;99.90;;;;;;5020097;28;20186;-79
2021/08/31 04:03:00;;;;;;;16.63;15.10;;;15.60;99.90;;;;;;4996911;28;20572;-78
2021/08/31 04:05:26;;;;;;;18.23;15.30;;;15.70;99.90;;;;;;4996924;28;20573;-79
2021/08/31 04:07:52;;;;;;;16.67;14.97;;;15.70;99.90;;;;;;5014426;28;20562;-79
2021/08/31 04:10:18;;;;;;;17.90;16.20;;;15.70;99.90;;;;;;5014501;28;20177;-80
2021/08/31 04:12:43;;;;;;;16.80;14.70;;;15.80;99.90;;;;;;5014292;28;20226;-80
2021/08/31 04:15:10;;;;;;;17.07;15.37;;;15.80;99.90;;;;;;4996907;28;20170;-79
2021/08/31 04:17:35;;;;;;;16.97;15.30;;;15.80;99.90;;;;;;5013863;28;20174;-80
2021/08/31 04:20:01;;;;;;;16.57;14.93;;;15.80;99.90;;;;;;5014444;28;21139;-79
2021/08/31 04:22:27;;;;;;;14.30;12.90;;;15.90;99.90;;;;;;4996397;28;20190;-80
2021/08/31 04:24:53;;;;;;;17.70;15.23;;;15.90;99.90;;;;;;5014359;28;20565;-80
2021/08/31 04:27:18;;;;;;;16.03;14.43;;;15.90;99.90;;;;;;5013780;28;20178;-80
2021/08/31 04:29:44;;;;;;;17.63;15.67;;;16.00;99.90;;;;;;5014198;28;20694;-78
2021/08/31 04:32:10;;;;;;;16.47;14.87;;;16.00;99.90;;;;;;4996412;28;20206;-79
2021/08/31 04:34:35;;;;;;;16.73;15.23;;;16.10;99.90;;;;;;5014382;28;20198;-80
2021/08/31 04:37:01;;;;;;;16.93;15.23;;;16.10;99.90;;;;;;5018755;28;20191;-80
2021/08/31 04:39:27;;;;;;;16.67;15.00;;;16.20;99.90;;;;;;5014075;28;20635;-79
2021/08/31 04:41:52;;;;;;;18.03;16.23;;;16.20;99.90;;;;;;4996124;28;20289;-79
2021/08/31 04:44:18;;;;;;;15.03;13.73;;;16.30;99.90;;;;;;5013238;28;20193;-79
2021/08/31 04:46:44;;;;;;;16.93;13.67;;;16.40;99.90;;;;;;5012992;28;20178;-79
2021/08/31 04:49:09;;;;;;;15.77;14.17;;;16.40;99.90;;;;;;5013798;28;20591;-79
2021/08/31 04:51:35;;;;;;;16.90;15.20;;;16.40;99.90;;;;;;5013633;28;20198;-80
2021/08/31 04:54:01;;;;;;;15.17;13.57;;;16.50;99.90;;;;;;5013927;28;20165;-80
2021/08/31 04:56:26;;;;;;;15.00;13.50;;;16.50;99.90;;;;;;4995966;28;20543;-80
2021/08/31 04:58:52;;;;;;;18.60;14.90;;;16.50;99.90;;;;;;5014119;28;20174;-79
2021/08/31 05:01:18;;;;;;;17.40;15.60;;;16.50;99.90;;;;;;4995395;28;20647;-79
2021/08/31 05:03:46;;;;;;;14.27;12.93;;;16.50;99.90;;;;;;5011344;28;20182;-80
2021/08/31 05:06:12;;;;;;;17.53;15.73;;;16.60;99.90;;;;;;5012625;28;20176;-80
2021/08/31 05:08:38;;;;;;;16.30;14.77;;;16.70;99.90;;;;;;5008504;28;20685;-80
2021/08/31 05:11:03;;;;;;;23.57;16.43;;;16.70;99.90;;;;;;5012534;28;20244;-80
2021/08/31 05:13:30;;;;;;;16.83;15.13;;;16.80;99.90;;;;;;5016665;28;20677;-79
2021/08/31 05:15:57;;;;;;;15.30;13.70;;;16.80;99.90;;;;;;5012116;28;20187;-79
2021/08/31 05:18:23;;;;;;;16.23;14.70;;;16.90;99.90;;;;;;5012873;28;20593;-79
2021/08/31 05:20:49;;;;;;;15.67;14.17;;;16.90;99.90;;;;;;4975854;28;21049;-80
2021/08/31 05:23:14;;;;;;;15.77;14.20;;;16.90;99.90;;;;;;4994953;28;20608;-80
2021/08/31 05:25:40;;;;;;;16.07;14.57;;;17.00;99.90;;;;;;5017162;28;20198;-80
2021/08/31 05:28:06;;;;;;;16.07;14.60;;;17.00;99.90;;;;;;4988054;28;20190;-80
2021/08/31 05:30:31;;;;;;;16.23;14.63;;;17.10;99.90;;;;;;5013489;28;20206;-80
2021/08/31 05:32:57;;;;;;;23.73;15.80;;;17.20;99.90;;;;;;5012788;28;20807;-80
2021/08/31 05:35:23;;;;;;;15.90;14.40;;;17.20;99.90;;;;;;5012460;28;20194;-79
2021/08/31 05:37:48;;;;;;;16.63;15.00;;;17.30;99.90;;;;;;5013202;28;20170;-79
2021/08/31 05:40:14;;;;;;;18.03;16.23;;;17.30;99.90;;;;;;5012970;28;20173;-79
2021/08/31 05:42:40;;;;;;;16.00;14.40;;;17.30;99.90;;;;;;5012856;28;20237;-79
2021/08/31 05:45:06;;;;;;;18.20;16.43;;;17.40;99.90;;;;;;5012692;28;20229;-80
2021/08/31 05:47:32;;;;;;;16.70;15.10;;;17.40;99.90;;;;;;5012223;28;20245;-80
2021/08/31 05:49:58;;;;;;;17.97;16.27;;;17.50;99.90;;;;;;4997224;28;20604;-80
2021/08/31 05:52:24;;;;;;;21.03;17.03;;;17.60;99.90;;;;;;4997129;28;20218;-80
2021/08/31 05:54:50;;;;;;;19.03;16.13;;;17.70;99.90;;;;;;4994699;28;20639;-80
2021/08/31 05:57:15;;;;;;;19.63;17.03;;;17.70;99.90;;;;;;5011717;28;20257;-81
2021/08/31 05:59:41;;;;;;;19.57;16.77;;;17.80;99.90;;;;;;5012365;28;20170;-81
2021/08/31 06:02:08;;;;;;;19.23;17.50;;;17.80;99.90;;;;;;5012421;28;20571;-80
2021/08/31 06:04:37;;;;;;;18.90;16.90;;;17.80;99.90;;;;;;4978488;28;20241;-80
2021/08/31 06:07:08;;;;;;;20.33;17.07;;;17.90;99.90;;;;;;5012030;28;20569;-80
2021/08/31 06:09:37;;;;;;;23.37;17.50;;;17.90;99.90;;;;;;4994705;28;20580;-80
2021/08/31 06:12:08;;;;;;;19.23;17.30;;;18.00;99.90;;;;;;5012246;28;20963;-80
2021/08/31 06:14:41;;;;;;;19.00;17.00;;;18.00;99.90;;;;;;5012259;28;20597;-80
2021/08/31 06:17:07;;;;;;;20.73;18.73;;;18.00;99.90;;;;;;4994058;28;20565;-80
2021/08/31 06:19:33;;;;;;;21.87;19.60;;;18.00;99.90;;;;;;5012038;28;20661;-79
2021/08/31 06:21:59;;;;;;;21.00;18.80;;;18.00;99.90;;;;;;4993589;28;20764;-79
2021/08/31 06:24:25;;;;;;;21.93;19.63;;;18.00;99.90;;;;;;5011937;28;20612;-80
2021/08/31 06:26:51;;;;;;;25.83;23.03;;;18.10;99.90;;;;;;5012107;28;21086;-80
2021/08/31 06:29:17;;;;;;;23.77;21.10;;;18.10;99.90;;;;;;5013870;28;20589;-82
2021/08/31 06:31:42;;;;;;;28.43;24.77;;;18.10;99.90;;;;;;4993039;28;20296;-81
2021/08/31 06:34:08;;;;;;;31.17;26.00;;;18.10;99.90;;;;;;4993938;28;20520;-81
2021/08/31 06:36:34;;;;;;;29.60;25.10;;;18.10;99.90;;;;;;5011412;28;20174;-82
2021/08/31 06:38:59;;;;;;;28.57;24.67;;;18.10;99.90;;;;;;5011233;28;20179;-81
2021/08/31 06:41:25;;;;;;;29.47;23.20;;;18.10;99.90;;;;;;5011739;28;20202;-82
2021/08/31 06:43:51;;;;;;;35.53;28.97;;;18.20;99.90;;;;;;5010649;28;20198;-81
2021/08/31 06:46:17;;;;;;;37.80;30.00;;;18.30;99.90;;;;;;5002293;28;20186;-80
2021/08/31 06:48:44;;;;;;;41.97;29.43;;;18.50;99.90;;;;;;5012070;28;20178;-81
2021/08/31 06:51:11;;;;;;;39.83;27.47;;;18.70;99.90;;;;;;5010852;28;20281;-79
2021/08/31 06:53:37;;;;;;;41.93;29.00;;;18.90;99.90;;;;;;5010915;28;20604;-79
2021/08/31 06:56:03;;;;;;;40.13;31.00;;;19.00;99.90;;;;;;5011869;28;20577;-80
2021/08/31 06:58:29;;;;;;;38.63;28.87;;;19.20;99.90;;;;;;5013236;28;20561;-79
2021/08/31 07:00:54;;;;;;;43.20;28.30;;;19.30;99.90;;;;;;4993825;28;20661;-79
2021/08/31 07:03:20;;;;;;;42.53;31.63;;;19.40;99.90;;;;;;5015665;28;20170;-80
2021/08/31 07:05:46;;;;;;;42.00;30.63;;;19.50;99.90;;;;;;5018269;28;20174;-79
2021/08/31 07:08:12;;;;;;;35.30;28.87;;;19.50;99.90;;;;;;4995601;28;20230;-81
2021/08/31 07:10:37;;;;;;;49.33;34.40;;;19.60;99.90;;;;;;5016746;28;20260;-78
2021/08/31 07:13:03;;;;;;;45.63;33.90;;;19.60;99.90;;;;;;5016615;28;20738;-80
2021/08/31 07:15:29;;;;;;;44.10;32.07;;;19.60;99.90;;;;;;4998528;28;20572;-80
2021/08/31 07:17:55;;;;;;;44.80;32.47;;;19.60;99.90;;;;;;4997862;28;20216;-80
2021/08/31 07:20:21;;;;;;;50.60;34.83;;;19.50;99.90;;;;;;5015205;28;20581;-80
2021/08/31 07:22:46;;;;;;;51.10;32.50;;;19.50;99.90;;;;;;5015262;28;20689;-79
2021/08/31 07:25:12;;;;;;;51.00;35.57;;;19.50;99.90;;;;;;5016190;28;20263;-80
2021/08/31 07:27:38;;;;;;;50.07;35.93;;;19.50;99.90;;;;;;4998364;28;20181;-80
2021/08/31 07:30:04;;;;;;;44.63;30.80;;;19.50;99.90;;;;;;4999644;28;20178;-80
2021/08/31 07:32:30;;;;;;;48.90;34.70;;;19.50;99.90;;;;;;5016607;28;20202;-81
2021/08/31 07:34:56;;;;;;;52.00;38.20;;;19.50;99.90;;;;;;4997794;28;20909;-81
2021/08/31 07:37:22;;;;;;;50.60;35.67;;;19.40;99.90;;;;;;5014796;28;20171;-80
2021/08/31 07:39:47;;;;;;;52.97;35.70;;;19.40;99.90;;;;;;4997668;28;20185;-81
2021/08/31 07:42:13;;;;;;;50.27;34.73;;;19.50;99.90;;;;;;5017717;28;20248;-80
2021/08/31 07:44:39;;;;;;;43.70;31.90;;;19.50;99.90;;;;;;5015409;28;20394;-80
2021/08/31 07:47:05;;;;;;;39.03;31.77;;;19.60;99.90;;;;;;5014617;28;20167;-81
2021/08/31 07:49:31;;;;;;;37.53;30.67;;;19.60;99.90;;;;;;5014840;28;20198;-82
2021/08/31 07:51:57;;;;;;;32.00;27.07;;;19.60;99.90;;;;;;4997102;28;20672;-81
2021/08/31 07:54:22;;;;;;;39.93;32.00;;;19.60;99.90;;;;;;5014936;28;20171;-80
2021/08/31 07:56:48;;;;;;;41.77;32.37;;;19.60;99.90;;;;;;5014490;28;20167;-80
2021/08/31 07:59:14;;;;;;;40.73;33.00;;;19.70;99.90;;;;;;5015019;28;20178;-81
2021/08/31 08:01:40;;;;;;;41.97;33.93;;;19.70;99.90;;;;;;4998462;28;20613;-80
2021/08/31 08:04:05;;;;;;;39.93;32.60;;;19.80;99.90;;;;;;5018204;28;20197;-81
2021/08/31 08:06:31;;;;;;;37.77;32.17;;;19.90;99.90;;;;;;5015971;28;20573;-80
2021/08/31 08:08:57;;;;;;;39.00;30.30;;;20.00;99.90;;;;;;5015851;28;20187;-80
2021/08/31 08:11:23;;;;;;;41.83;30.93;;;20.10;99.90;;;;;;5017275;28;20629;-80
2021/08/31 08:13:49;;;;;;;39.53;30.70;;;20.20;99.90;;;;;;5014558;28;20505;-79
2021/08/31 08:16:15;;;;;;;41.30;30.87;;;20.30;99.90;;;;;;4996416;28;20565;-79
2021/08/31 08:18:41;;;;;;;48.53;34.77;;;20.30;99.90;;;;;;5018699;28;20576;-80
2021/08/31 08:21:06;;;;;;;45.77;34.80;;;20.40;99.90;;;;;;5014130;28;20229;-79
2021/08/31 08:23:32;;;;;;;40.47;30.67;;;20.40;99.90;;;;;;5014306;28;20566;-79
2021/08/31 08:25:58;;;;;;;47.40;35.67;;;20.50;99.90;;;;;;4996264;28;20174;-79
2021/08/31 08:28:25;;;;;;;46.87;37.40;;;20.60;99.90;;;;;;5013921;28;20580;-79
2021/08/31 08:30:52;;;;;;;37.37;30.80;;;20.60;99.90;;;;;;5014686;28;20205;-79
2021/08/31 08:33:19;;;;;;;52.67;36.80;;;20.70;99.90;;;;;;4996277;28;20637;-79
2021/08/31 08:35:45;;;;;;;48.30;34.80;;;20.70;99.90;;;;;;5013468;28;20577;-79
2021/08/31 08:38:10;;;;;;;44.83;35.13;;;20.70;99.90;;;;;;5013846;28;20580;-79
2021/08/31 08:40:36;;;;;;;45.03;35.93;;;20.70;99.90;;;;;;5013752;28;21230;-79
2021/08/31 08:43:03;;;;;;;50.20;33.97;;;20.70;99.90;;;;;;4996351;28;20174;-79
2021/08/31 08:45:29;;;;;;;43.90;36.60;;;20.70;99.90;;;;;;5013347;28;20179;-80
2021/08/31 08:47:55;;;;;;;44.37;36.60;;;20.70;99.90;;;;;;4996143;28;20585;-80
2021/08/31 08:50:21;;;;;;;44.43;34.63;;;20.70;99.90;;;;;;5013609;28;20731;-80
2021/08/31 08:52:46;;;;;;;44.37;34.93;;;20.70;99.90;;;;;;5013406;28;20557;-80
2021/08/31 08:55:13;;;;;;;46.77;37.00;;;20.70;99.90;;;;;;5019103;28;20241;-80
2021/08/31 08:57:39;;;;;;;46.83;37.03;;;20.70;99.90;;;;;;5012934;28;20569;-80
2021/08/31 09:00:07;;;;;;;45.47;36.73;;;20.70;99.90;;;;;;5013245;28;20570;-80
2021/08/31 09:02:43;;;;;;;44.53;36.83;;;20.70;99.90;;;;;;5013222;28;20632;-80
2021/08/31 09:05:30;;;;;;;45.77;38.67;;;20.70;99.90;;;;;;5013272;28;20640;-80
2021/08/31 09:08:04;;;;;;;46.73;37.30;;;20.70;99.90;;;;;;5004541;28;20616;-80
2021/08/31 09:10:30;;;;;;;43.90;38.20;;;20.70;99.90;;;;;;4995745;28;20991;-80
2021/08/31 09:12:56;;;;;;;45.10;35.27;;;20.70;99.90;;;;;;5014071;28;20732;-80
2021/08/31 09:15:37;;;;;;;43.90;38.17;;;20.60;99.90;;;;;;5013097;28;20696;-79
2021/08/31 09:18:03;;;;;;;42.47;36.20;;;20.60;99.90;;;;;;5013104;28;20219;-79
2021/08/31 09:20:40;;;;;;;39.73;35.27;;;20.60;99.90;;;;;;5013038;28;20593;-79
2021/08/31 09:23:09;;;;;;;42.53;35.00;;;20.50;99.90;;;;;;5013139;28;20577;-81
2021/08/31 09:25:40;;;;;;;46.07;38.53;;;20.50;99.90;;;;;;5012814;28;20573;-80
2021/08/31 09:28:27;;;;;;;41.77;35.40;;;20.40;99.90;;;;;;5013163;28;20573;-79
2021/08/31 09:31:19;;;;;;;38.93;34.10;;;20.30;99.90;;;;;;5012506;28;21051;-79
2021/08/31 09:33:50;;;;;;;35.43;31.63;;;20.30;99.90;;;;;;5026223;23;20668;-78
2021/08/31 09:36:24;;;;;;;31.67;28.17;;;20.20;99.90;;;;;;5004939;28;20647;-79
2021/08/31 09:38:56;;;;;;;32.03;28.67;;;20.20;99.90;;;;;;5033557;28;20607;-77
2021/08/31 09:41:39;;;;;;;31.20;27.47;;;20.10;99.90;;;;;;5031982;28;20588;-78
2021/08/31 09:44:11;;;;;;;32.73;29.23;;;20.10;99.90;;;;;;5030827;28;20703;-78
2021/08/31 09:46:59;;;;;;;36.33;31.30;;;20.00;99.90;;;;;;5053039;28;20967;-78
2021/08/31 09:49:37;;;;;;;34.73;31.03;;;20.00;99.90;;;;;;5053385;28;20559;-78
2021/08/31 09:52:08;;;;;;;41.97;33.10;;;19.90;99.90;;;;;;5035233;28;20615;-78
2021/08/31 09:54:48;;;;;;;40.03;35.00;;;19.90;99.90;;;;;;5018719;28;20598;-78
2021/08/31 09:57:28;;;;;;;38.47;34.27;;;19.90;99.90;;;;;;5018705;28;20583;-78
2021/08/31 09:59:54;;;;;;;36.90;31.50;;;19.80;99.90;;;;;;5018599;28;20563;-79
2021/08/31 10:02:20;;;;;;;41.07;36.47;;;19.80;99.90;;;;;;5035070;28;21125;-78
2021/08/31 10:04:46;;;;;;;42.03;34.37;;;19.90;99.90;;;;;;5034996;28;20576;-78
2021/08/31 10:07:13;;;;;;;39.00;33.37;;;19.90;99.90;;;;;;5035496;28;20315;-79
2021/08/31 10:09:39;;;;;;;40.07;35.13;;;19.90;99.90;;;;;;5054134;28;20165;-79
2021/08/31 10:12:09;;;;;;;44.50;36.50;;;20.00;99.90;;;;;;5054647;28;20653;-79
2021/08/31 10:14:41;;;;;;;40.27;35.30;;;20.10;99.90;;;;;;5035489;28;20695;-79
2021/08/31 10:17:11;;;;;;;47.07;36.57;;;20.10;99.90;;;;;;5034632;28;20586;-79
2021/08/31 10:19:42;;;;;;;42.43;34.87;;;20.20;99.90;;;;;;5052205;28;20572;-79
2021/08/31 10:22:11;;;;;;;41.43;35.53;;;20.20;99.90;;;;;;5034272;28;21164;-79
2021/08/31 10:24:37;;;;;;;39.53;33.80;;;20.30;99.90;;;;;;5034163;28;20600;-79
2021/08/31 10:27:33;;;;;;;36.37;32.30;;;20.30;99.90;;;;;;5034171;28;20959;-79
2021/08/31 10:30:17;;;;;;;32.43;28.93;;;20.30;99.90;;;;;;5053278;28;20563;-80
2021/08/31 10:32:44;;;;;;;31.20;27.57;;;20.30;99.90;;;;;;5017667;28;20631;-79
2021/08/31 10:35:31;;;;;;;27.73;24.93;;;20.30;99.90;;;;;;5052007;28;20613;-79
2021/08/31 10:38:00;;;;;;;26.60;24.00;;;20.30;99.90;;;;;;5051734;28;20977;-79
2021/08/31 10:40:35;;;;;;;27.10;24.40;;;20.30;99.90;;;;;;5017366;28;20626;-79
2021/08/31 10:43:02;;;;;;;26.27;23.57;;;20.30;99.90;;;;;;5052828;28;21174;-78
2021/08/31 10:45:37;;;;;;;26.13;23.53;;;20.40;99.90;;;;;;5038026;28;21125;-78
2021/08/31 10:48:22;;;;;;;26.27;23.57;;;20.50;99.90;;;;;;5021514;28;21130;-79
2021/08/31 10:50:49;;;;;;;23.60;21.30;;;20.60;99.90;;;;;;5055932;28;20650;-80
2021/08/31 10:53:43;;;;;;;25.30;22.70;;;20.80;99.90;;;;;;5056008;28;20711;-79
2021/08/31 10:56:21;;;;;;;20.27;18.47;;;21.10;99.90;;;;;;5037690;28;20583;-79
2021/08/31 10:58:51;;;;;;;17.63;15.97;;;21.70;99.90;;;;;;5037919;28;20575;-79
2021/08/31 11:01:18;;;;;;;18.03;16.33;;;22.30;99.90;;;;;;5055711;28;20552;-80
2021/08/31 11:03:45;;;;;;;14.23;13.00;;;23.00;99.90;;;;;;5021478;28;21033;-79
2021/08/31 11:06:18;;;;;;;12.67;11.47;;;23.70;99.90;;;;;;5055610;28;20583;-79
2021/08/31 11:09:02;;;;;;;13.70;12.40;;;24.40;99.90;;;;;;5056457;28;20560;-79
2021/08/31 11:11:28;;;;;;;13.27;12.07;;;25.20;99.90;;;;;;5037611;28;20968;-78
2021/08/31 11:13:55;;;;;;;12.63;11.43;;;25.90;99.90;;;;;;5055364;28;20605;-79
2021/08/31 11:16:28;;;;;;;12.27;11.00;;;26.60;99.90;;;;;;5054734;28;20176;-79
2021/08/31 11:18:55;;;;;;;11.13;10.10;;;27.00;99.90;;;;;;5055076;28;20666;-79
2021/08/31 11:21:22;;;;;;;11.27;10.20;;;27.50;99.90;;;;;;5055067;28;20963;-79
2021/08/31 11:23:48;;;;;;;11.17;9.97;;;27.90;99.90;;;;;;5037203;28;20737;-79
2021/08/31 11:26:22;;;;;;;11.47;9.70;;;28.20;99.90;;;;;;5020570;28;20947;-79
2021/08/31 11:28:48;;;;;;;11.13;10.10;;;28.40;99.90;;;;;;5020653;28;20659;-79
2021/08/31 11:31:27;;;;;;;10.37;9.50;;;28.60;99.90;;;;;;5054380;28;20576;-79
2021/08/31 11:33:54;;;;;;;11.30;10.30;;;28.70;99.90;;;;;;5037254;28;20206;-79
2021/08/31 11:36:26;;;;;;;11.17;10.27;;;28.80;99.90;;;;;;5037155;28;20603;-80
2021/08/31 11:38:56;;;;;;;11.97;10.77;;;29.00;99.90;;;;;;5020627;28;20572;-79
2021/08/31 11:41:27;;;;;;;10.93;9.70;;;29.10;99.90;;;;;;5037042;28;20578;-79
2021/08/31 11:43:56;;;;;;;10.00;8.93;;;29.10;99.90;;;;;;5037203;28;20974;-79
2021/08/31 11:46:31;;;;;;;9.23;8.50;;;29.30;99.90;;;;;;5036554;28;20633;-78
2021/08/31 11:49:21;;;;;;;8.87;8.07;;;29.50;99.90;;;;;;5020724;28;20716;-79
2021/08/31 11:52:07;;;;;;;9.83;9.03;;;29.60;99.90;;;;;;5036732;28;21046;-79
2021/08/31 11:54:39;;;;;;;8.97;8.27;;;29.80;99.90;;;;;;5054383;28;20604;-79
2021/08/31 11:57:06;;;;;;;9.37;8.50;;;29.70;99.90;;;;;;5036573;28;20934;-78
2021/08/31 11:59:36;;;;;;;8.70;7.80;;;29.60;99.90;;;;;;5036727;28;20564;-78
2021/08/31 12:02:19;;;;;;;8.30;7.50;;;29.60;99.90;;;;;;5036382;28;20560;-78
2021/08/31 12:05:00;;;;;;;8.07;7.40;;;29.60;99.90;;;;;;5036549;28;20618;-78
2021/08/31 12:07:34;;;;;;;8.70;7.90;;;29.60;99.90;;;;;;5036556;28;20574;-78
2021/08/31 12:10:02;;;;;;;8.20;7.27;;;29.60;99.90;;;;;;5020447;28;20700;-78
2021/08/31 12:12:29;;;;;;;7.07;6.47;;;29.40;99.90;;;;;;5020128;28;20615;-78
2021/08/31 12:14:55;;;;;;;7.37;6.60;;;29.30;99.90;;;;;;5038266;28;20733;-78
2021/08/31 12:17:57;;;;;;;7.00;6.40;;;29.30;99.90;;;;;;5041679;28;20586;-79
2021/08/31 12:20:24;;;;;;;6.90;6.30;;;29.10;99.90;;;;;;5041132;28;20188;-78
2021/08/31 12:22:51;;;;;;;7.10;6.50;;;29.00;99.90;;;;;;5025005;28;20634;-78
2021/08/31 12:25:19;;;;;;;5.43;4.93;;;28.90;99.90;;;;;;5024749;28;20572;-79
2021/08/31 12:27:50;;;;;;;7.83;5.80;;;28.80;99.90;;;;;;5024145;28;20567;-79
2021/08/31 12:30:34;;;;;;;7.10;5.87;;;28.70;99.90;;;;;;5036755;28;20614;-79
2021/08/31 12:33:00;;;;;;;7.53;6.83;;;28.60;99.90;;;;;;5054418;28;20645;-79